Caronport, Canada
Current Conditions -  °F | °C
As of 5:00 PM on Saturday 22 Nov 2014 (Local Time) from CYQR Reporting Station
Broken Clouds Broken Clouds  
Wind Chill: 27°   Ceiling: 11000
Heat Index: 36°   Visibility: 15mi
Dew Point: 34°   Wind: 13mph
Humidity: 93%   Direction: 140°SE
Pressure: 29.11"   Gusts: NA
Location:  50.46°N, 105.82°W
Report Text: CYQR 222300Z 14011KT 15SM SCT046 BKN110 02/01 A2911 RMK SC4AC2 SLP883
Loading
Personal Weather Stations






























Interactive Weather Map New forecast layout! Learn more

10-Day Weather Forecast

Advertisements
Track Severe Weather on mobile